Погода Саскутна 2 недели

Северо-Восточный, Румыния

14 - 26 июля
  • 14июля
    Сегодня
    +19°
    +39°
    Ясно и безоблачно
    ВремяПогодаТемператураВлажностьДавлениеВетер, м/сВероятность осадков
    00:00Ясно и безоблачно+24°C54 %747 мм1.5 м/с2 %
    03:00Ясно и безоблачно+22°C64 %747 мм2.0 м/с2 %
    06:00Ясно и безоблачно+20°C75 %747 мм2.5 м/с2 %
    09:00Ясно и безоблачно+26°C54 %748 мм2.5 м/с2 %
    12:00Ясно и безоблачно+34°C31 %748 мм2.4 м/с2 %
    15:00Ясно и безоблачно+37°C26 %747 мм2.0 м/с2 %
    18:00Ясно и безоблачно+38°C24 %747 мм2.8 м/с2 %
    21:00Ясно и безоблачно+32°C28 %747 мм2.1 м/с2 %
  • 15июля
    Понедельник
    +21°
    +40°
    Ясно и безоблачно
    ВремяПогодаТемператураВлажностьДавлениеВетер, м/сВероятность осадков
    00:00Ясно и безоблачно+25°C39 %748 мм2.0 м/с2 %
    03:00Ясно и безоблачно+22°C58 %748 мм2.2 м/с2 %
    06:00Ясно и безоблачно+20°C72 %748 мм2.9 м/с2 %
    09:00Ясно и безоблачно+27°C44 %749 мм2.9 м/с2 %
    12:00Ясно и безоблачно+35°C25 %749 мм2.5 м/с2 %
    15:00Ясно и безоблачно+39°C23 %748 мм2.5 м/с2 %
    18:00Ясно и безоблачно+39°C23 %747 мм2.9 м/с2 %
    21:00Ясно и безоблачно+35°C30 %747 мм1.7 м/с2 %
  • 16июля
    Вторник
    +22°
    +40°
    Ясно и безоблачно
    ВремяПогодаТемператураВлажностьДавлениеВетер, м/сВероятность осадков
    00:00Ясно и безоблачно+26°C39 %748 мм1.4 м/с2 %
    03:00Ясно и безоблачно+23°C60 %748 мм2.6 м/с2 %
    06:00Ясно и безоблачно+22°C55 %748 мм3.5 м/с2 %
    09:00Ясно и безоблачно+28°C43 %749 мм3.4 м/с2 %
    12:00Ясно и безоблачно+36°C26 %749 мм2.6 м/с2 %
    15:00Ясно и безоблачно+39°C24 %748 мм2.0 м/с2 %
    18:00Ясно и безоблачно+38°C25 %747 мм2.1 м/с4 %
    21:00Практически безоблачно+34°C36 %747 мм1.3 м/с3 %
  • 17июля
    Среда
    +24°
    +41°
    Практически безоблачно
    ВремяПогодаТемператураВлажностьДавлениеВетер, м/сВероятность осадков
    00:00Ясно и безоблачно+28°C45 %748 мм1.6 м/с2 %
    03:00Ясно и безоблачно+26°C56 %748 мм2.2 м/с2 %
    06:00Ясно и безоблачно+24°C70 %748 мм2.8 м/с2 %
    09:00Ясно и безоблачно+30°C44 %749 мм3.0 м/с2 %
    12:00Ясно и безоблачно+37°C29 %749 мм2.3 м/с2 %
    15:00Практически безоблачно+39°C25 %749 мм1.9 м/с7 %
    18:00Небольшая облачность, возможен дождь с грозой+37°C49 %749 мм1.5 м/с28 %
    21:00Ясно и безоблачно+32°C57 %750 мм3.0 м/с9 %
Мы используем cookies
Соглашаюсь